createdAt,value
2023-04-29T00:02:20.660Z,78.36
2023-04-29T00:04:53.690Z,78.32
2023-04-29T00:07:26.011Z,78.15
2023-04-29T00:10:01.208Z,77.58
2023-04-29T00:12:33.970Z,77.58
2023-04-29T00:15:07.253Z,77.91
2023-04-29T00:17:39.580Z,78.69
2023-04-29T00:20:13.797Z,79.10
2023-04-29T00:22:45.808Z,78.43
2023-04-29T00:25:22.770Z,79.05
2023-04-29T00:27:54.807Z,79.27
2023-04-29T00:30:29.689Z,79.70
2023-04-29T00:33:05.166Z,79.59
2023-04-29T00:35:37.927Z,79.53
2023-04-29T00:38:09.932Z,79.80
2023-04-29T00:40:46.925Z,79.86
2023-04-29T00:43:18.853Z,79.74
2023-04-29T00:45:55.498Z,79.89
2023-04-29T00:48:30.411Z,80.08
2023-04-29T00:51:06.128Z,80.50
2023-04-29T00:53:40.495Z,80.06
2023-04-29T00:57:13.888Z,80.82
2023-04-29T00:59:50.021Z,80.28
2023-04-29T01:02:23.069Z,80.24
2023-04-29T01:04:57.614Z,80.50
2023-04-29T01:07:39.450Z,81.53
2023-04-29T01:10:18.218Z,85.22
2023-04-29T01:13:28.496Z,88.40
2023-04-29T01:16:54.288Z,93.04
2023-04-29T01:23:05.056Z,99.03
2023-04-29T01:25:43.970Z,100.00
2023-04-29T01:28:28.012Z,100.00
2023-04-29T01:31:12.695Z,100.00
2023-04-29T01:33:54.411Z,100.00
2023-04-29T01:36:36.097Z,100.00
2023-04-29T01:39:17.825Z,100.00
2023-04-29T01:42:04.328Z,100.00
2023-04-29T01:44:37.456Z,100.00
2023-04-29T01:47:11.250Z,100.00
2023-04-29T01:49:46.009Z,100.00
2023-04-29T01:52:18.530Z,100.00
2023-04-29T01:54:51.013Z,100.00
2023-04-29T01:58:11.465Z,100.00
2023-04-29T02:00:49.218Z,100.00
2023-04-29T02:03:22.052Z,100.00
2023-04-29T02:05:54.250Z,100.00
2023-04-29T02:08:26.694Z,100.00
2023-04-29T02:10:59.688Z,100.00
2023-04-29T02:13:32.333Z,100.00
2023-04-29T02:16:14.652Z,100.00
2023-04-29T02:18:47.171Z,100.00
2023-04-29T02:21:19.092Z,100.00
2023-04-29T02:23:52.137Z,100.00
2023-04-29T02:26:24.188Z,100.00
2023-04-29T02:28:58.697Z,100.00
2023-04-29T02:31:33.701Z,100.00
2023-04-29T02:34:09.416Z,100.00
2023-04-29T02:39:41.693Z,100.00
2023-04-29T02:42:16.222Z,100.00
2023-04-29T02:44:48.177Z,100.00
2023-04-29T02:47:25.108Z,100.00
2023-04-29T02:49:59.413Z,100.00
2023-04-29T02:52:31.779Z,100.00
2023-04-29T02:55:03.739Z,100.00
2023-04-29T02:57:36.176Z,100.00
2023-04-29T03:00:28.073Z,100.00
2023-04-29T03:03:03.228Z,100.00
2023-04-29T03:05:35.821Z,100.00
2023-04-29T03:08:11.658Z,100.00
2023-04-29T03:10:43.495Z,100.00
2023-04-29T03:13:15.823Z,100.00
2023-04-29T03:15:47.655Z,100.00
2023-04-29T03:18:22.623Z,100.00
2023-04-29T03:20:54.859Z,100.00
2023-04-29T03:23:28.455Z,100.00
2023-04-29T03:26:01.143Z,100.00
2023-04-29T03:28:33.772Z,100.00
2023-04-29T03:31:08.290Z,100.00
2023-04-29T03:33:44.891Z,100.00
2023-04-29T03:36:17.210Z,100.00
2023-04-29T03:38:50.130Z,100.00
2023-04-29T03:41:24.490Z,100.00
2023-04-29T03:44:01.163Z,100.00
2023-04-29T03:46:33.195Z,100.00
2023-04-29T03:49:28.366Z,100.00
2023-04-29T03:52:00.410Z,100.00
2023-04-29T03:54:32.886Z,100.00
2023-04-29T03:57:05.072Z,100.00
2023-04-29T03:59:37.454Z,100.00
2023-04-29T04:02:09.893Z,100.00
2023-04-29T04:04:48.442Z,100.00
2023-04-29T04:07:20.607Z,100.00
2023-04-29T04:09:53.129Z,100.00
2023-04-29T04:12:25.376Z,100.00
2023-04-29T04:14:57.966Z,100.00
2023-04-29T04:17:30.201Z,100.00
2023-04-29T04:20:08.323Z,100.00
2023-04-29T04:22:43.284Z,100.00
2023-04-29T04:25:15.972Z,100.00
2023-04-29T04:27:47.978Z,100.00
2023-04-29T04:30:20.973Z,100.00
2023-04-29T04:32:53.110Z,100.00
2023-04-29T04:35:28.211Z,100.00
2023-04-29T04:38:02.971Z,100.00
2023-04-29T04:40:35.411Z,100.00
2023-04-29T04:43:07.382Z,100.00
2023-04-29T04:45:40.320Z,100.00
2023-04-29T04:48:12.502Z,100.00
2023-04-29T04:50:47.812Z,100.00
2023-04-29T04:53:19.771Z,100.00
2023-04-29T04:55:52.293Z,100.00
2023-04-29T04:58:24.328Z,100.00
2023-04-29T05:00:56.947Z,100.00
2023-04-29T05:03:29.826Z,100.00
2023-04-29T05:06:06.623Z,100.00
2023-04-29T05:08:38.444Z,100.00
2023-04-29T05:11:10.900Z,100.00
2023-04-29T05:13:45.419Z,100.00
2023-04-29T05:16:18.657Z,100.00
2023-04-29T05:18:50.651Z,100.00
2023-04-29T05:21:25.958Z,100.00
2023-04-29T05:23:58.079Z,100.00
2023-04-29T05:26:30.722Z,100.00
2023-04-29T05:29:04.172Z,100.00
2023-04-29T05:31:37.669Z,100.00
2023-04-29T05:34:10.194Z,100.00
2023-04-29T05:36:48.670Z,100.00
2023-04-29T05:39:21.571Z,100.00
2023-04-29T05:41:54.440Z,100.00
2023-04-29T05:44:29.524Z,100.00
2023-04-29T05:47:03.432Z,100.00
2023-04-29T05:49:40.282Z,100.00
2023-04-29T05:52:19.884Z,100.00
2023-04-29T05:54:52.697Z,100.00
2023-04-29T05:57:27.200Z,100.00
2023-04-29T06:00:00.556Z,100.00
2023-04-29T06:02:35.826Z,100.00
2023-04-29T06:05:13.841Z,100.00
2023-04-29T06:07:49.173Z,100.00
2023-04-29T06:10:22.075Z,100.00
2023-04-29T06:12:54.765Z,100.00
2023-04-29T06:15:27.059Z,100.00
2023-04-29T06:17:59.856Z,100.00
2023-04-29T06:20:34.001Z,100.00
2023-04-29T06:23:10.215Z,100.00
2023-04-29T06:25:42.600Z,100.00
2023-04-29T06:28:14.992Z,100.00
2023-04-29T06:30:47.210Z,100.00
2023-04-29T06:33:19.716Z,100.00
2023-04-29T06:35:51.774Z,100.00
2023-04-29T06:38:27.057Z,100.00
2023-04-29T06:41:01.329Z,100.00
2023-04-29T06:43:34.264Z,100.00
2023-04-29T06:46:06.464Z,100.00
2023-04-29T06:48:39.129Z,100.00
2023-04-29T06:51:13.281Z,100.00
2023-04-29T06:53:48.698Z,100.00
2023-04-29T06:56:22.457Z,100.00
2023-04-29T06:58:56.032Z,100.00
2023-04-29T07:01:28.569Z,100.00
2023-04-29T07:04:05.112Z,100.00
2023-04-29T07:06:41.200Z,100.00
2023-04-29T07:09:19.428Z,100.00
2023-04-29T07:11:51.515Z,100.00
2023-04-29T07:14:28.372Z,100.00
2023-04-29T07:17:01.559Z,100.00
2023-04-29T07:19:35.109Z,100.00
2023-04-29T07:22:07.693Z,100.00
2023-04-29T07:24:44.239Z,100.00
2023-04-29T07:27:17.093Z,100.00
2023-04-29T07:29:50.747Z,100.00
2023-04-29T07:32:25.432Z,100.00
2023-04-29T07:34:57.884Z,100.00
2023-04-29T07:37:30.237Z,100.00
2023-04-29T07:40:06.220Z,100.00
2023-04-29T07:42:38.338Z,100.00
2023-04-29T07:45:12.218Z,100.00
2023-04-29T07:47:45.106Z,100.00
2023-04-29T07:50:18.756Z,100.00
2023-04-29T07:52:51.673Z,100.00
2023-04-29T07:55:27.470Z,100.00
2023-04-29T07:58:00.782Z,100.00
2023-04-29T08:00:34.020Z,100.00
2023-04-29T08:03:06.605Z,100.00
2023-04-29T08:05:39.991Z,100.00
2023-04-29T08:08:12.663Z,100.00
2023-04-29T08:10:48.538Z,100.00
2023-04-29T08:13:21.178Z,100.00
2023-04-29T08:15:54.515Z,100.00
2023-04-29T08:18:27.432Z,100.00
2023-04-29T08:21:00.595Z,100.00
2023-04-29T08:23:33.633Z,100.00
2023-04-29T08:26:09.734Z,100.00
2023-04-29T08:28:42.407Z,100.00
2023-04-29T08:31:21.212Z,100.00
2023-04-29T08:33:53.822Z,100.00
2023-04-29T08:36:29.217Z,100.00
2023-04-29T08:39:02.183Z,100.00
2023-04-29T08:41:51.725Z,100.00
2023-04-29T08:44:24.280Z,100.00
2023-04-29T08:46:57.926Z,100.00
2023-04-29T08:49:33.253Z,100.00
2023-04-29T08:52:07.635Z,100.00
2023-04-29T08:54:40.296Z,100.00
2023-04-29T08:57:17.200Z,100.00
2023-04-29T08:59:49.929Z,100.00
2023-04-29T09:02:24.857Z,100.00
2023-04-29T09:05:04.591Z,100.00
2023-04-29T09:07:39.120Z,100.00
2023-04-29T09:10:12.598Z,100.00
2023-04-29T09:12:48.685Z,100.00
2023-04-29T09:15:21.154Z,100.00
2023-04-29T09:17:54.237Z,100.00
2023-04-29T09:20:34.493Z,100.00
2023-04-29T09:23:07.772Z,100.00
2023-04-29T09:25:40.299Z,100.00
2023-04-29T09:28:21.501Z,100.00
2023-04-29T09:30:54.077Z,100.00
2023-04-29T09:33:29.089Z,100.00
2023-04-29T09:36:01.718Z,100.00
2023-04-29T09:38:34.526Z,100.00
2023-04-29T09:41:18.717Z,100.00
2023-04-29T09:44:08.240Z,100.00
2023-04-29T09:46:41.805Z,100.00
2023-04-29T09:49:28.173Z,100.00
2023-04-29T09:52:02.355Z,100.00
2023-04-29T09:54:37.023Z,100.00
2023-04-29T09:57:11.643Z,100.00
2023-04-29T09:59:49.435Z,100.00
2023-04-29T10:02:24.359Z,100.00
2023-04-29T10:05:00.472Z,100.00
2023-04-29T10:07:33.442Z,100.00
2023-04-29T10:10:11.290Z,100.00
2023-04-29T10:12:44.724Z,100.00
2023-04-29T10:15:28.207Z,100.00
2023-04-29T10:18:10.273Z,100.00
2023-04-29T10:20:47.652Z,100.00
2023-04-29T10:23:21.683Z,100.00
2023-04-29T10:25:57.900Z,100.00
2023-04-29T10:28:34.496Z,100.00
2023-04-29T10:31:11.181Z,100.00
2023-04-29T10:33:47.969Z,100.00
2023-04-29T10:36:22.281Z,100.00
2023-04-29T10:38:58.517Z,100.00
2023-04-29T10:41:35.314Z,100.00
2023-04-29T10:44:07.971Z,100.00
2023-04-29T10:46:44.269Z,100.00
2023-04-29T10:49:17.637Z,100.00
2023-04-29T10:51:51.075Z,99.41
2023-04-29T10:54:26.549Z,99.86
2023-04-29T10:56:59.955Z,100.00
2023-04-29T10:59:50.236Z,100.00
2023-04-29T11:02:26.572Z,100.00
2023-04-29T11:05:14.365Z,100.00
2023-04-29T11:07:53.248Z,97.82
2023-04-29T11:10:41.268Z,97.53
2023-04-29T11:13:29.724Z,94.90
2023-04-29T11:16:10.869Z,93.62
2023-04-29T11:19:13.295Z,94.59
2023-04-29T11:21:46.298Z,94.44
2023-04-29T11:24:20.197Z,92.98
2023-04-29T11:26:56.444Z,93.14
2023-04-29T11:29:31.175Z,91.79
2023-04-29T11:32:05.527Z,91.58
2023-04-29T11:34:41.944Z,89.48
2023-04-29T11:37:14.419Z,87.03
2023-04-29T11:39:47.181Z,85.83
2023-04-29T11:42:24.584Z,87.79
2023-04-29T11:45:01.085Z,85.09
2023-04-29T11:47:34.655Z,84.50
2023-04-29T11:50:11.973Z,84.08
2023-04-29T11:52:46.764Z,82.10
2023-04-29T11:55:23.721Z,83.10
2023-04-29T11:57:57.963Z,83.43
2023-04-29T12:00:31.095Z,82.19
2023-04-29T12:03:04.963Z,82.10
2023-04-29T12:05:41.054Z,82.33
2023-04-29T12:08:14.160Z,81.63
2023-04-29T12:10:47.934Z,82.27
2023-04-29T12:13:22.933Z,83.17
2023-04-29T12:15:56.813Z,85.46
2023-04-29T12:18:31.767Z,86.11
2023-04-29T12:21:07.776Z,88.20
2023-04-29T12:23:42.110Z,88.90
2023-04-29T12:26:15.547Z,88.14
2023-04-29T12:28:48.247Z,88.73
2023-04-29T12:31:21.715Z,90.14
2023-04-29T12:33:59.613Z,89.82
2023-04-29T12:36:56.474Z,88.25
2023-04-29T12:39:47.190Z,86.91
2023-04-29T12:42:20.354Z,85.58
2023-04-29T12:44:53.193Z,86.18
2023-04-29T12:47:26.594Z,84.92
2023-04-29T12:50:01.763Z,83.12
2023-04-29T12:52:40.255Z,82.56
2023-04-29T12:55:14.558Z,80.79
2023-04-29T12:57:47.328Z,79.57
2023-04-29T13:00:21.455Z,78.52
2023-04-29T13:02:57.623Z,77.55
2023-04-29T13:05:30.490Z,77.24
2023-04-29T13:08:11.783Z,77.71
2023-04-29T13:10:44.365Z,77.96
2023-04-29T13:13:18.680Z,78.08
2023-04-29T13:15:52.898Z,77.12
2023-04-29T13:18:26.431Z,76.45
2023-04-29T13:21:02.435Z,75.93
2023-04-29T13:23:38.130Z,75.18
2023-04-29T13:26:11.864Z,76.17
2023-04-29T13:28:48.113Z,75.17
2023-04-29T13:31:20.701Z,73.55
2023-04-29T13:33:56.385Z,72.60
2023-04-29T13:36:35.592Z,72.19
2023-04-29T13:39:19.947Z,71.77
2023-04-29T13:41:59.541Z,73.20
2023-04-29T13:44:59.083Z,71.61
2023-04-29T13:47:45.234Z,70.17
2023-04-29T13:59:02.922Z,68.63
2023-04-29T14:04:05.027Z,69.92
2023-04-29T14:06:43.064Z,69.47
2023-04-29T14:09:17.438Z,69.93
2023-04-29T14:11:53.402Z,70.51
2023-04-29T14:14:28.131Z,70.76
2023-04-29T14:17:02.290Z,70.22
2023-04-29T14:19:37.205Z,70.84
2023-04-29T14:22:11.234Z,70.69
2023-04-29T14:24:43.567Z,69.87
2023-04-29T14:27:19.959Z,70.70
2023-04-29T14:29:51.838Z,70.49
2023-04-29T14:32:25.043Z,69.08
2023-04-29T14:34:58.971Z,69.62
2023-04-29T14:37:32.416Z,69.60
2023-04-29T14:40:06.495Z,68.49
2023-04-29T14:42:42.077Z,67.84
2023-04-29T14:45:17.860Z,68.74
2023-04-29T14:47:51.094Z,68.29
2023-04-29T14:50:23.834Z,67.46
2023-04-29T14:53:02.262Z,67.69
2023-04-29T14:55:35.379Z,66.41
2023-04-29T14:58:13.976Z,64.17
2023-04-29T15:00:46.554Z,62.85
2023-04-29T15:03:43.735Z,63.37
2023-04-29T15:06:19.516Z,61.38
2023-04-29T15:08:53.060Z,61.34
2023-04-29T15:11:30.949Z,62.67
2023-04-29T15:14:08.693Z,61.28
2023-04-29T15:16:44.744Z,60.23
2023-04-29T15:19:21.276Z,59.43
2023-04-29T15:21:54.327Z,58.67
2023-04-29T15:24:35.941Z,58.69
2023-04-29T15:27:23.125Z,59.39
2023-04-29T15:29:58.945Z,60.21
2023-04-29T15:32:37.385Z,61.13
2023-04-29T15:35:14.765Z,62.63
2023-04-29T15:37:49.056Z,63.38
2023-04-29T15:40:24.170Z,62.83
2023-04-29T15:42:58.243Z,62.86
2023-04-29T15:45:39.883Z,63.54
2023-04-29T15:48:13.178Z,63.31
2023-04-29T15:50:46.363Z,63.48
2023-04-29T15:53:23.826Z,63.49
2023-04-29T15:56:04.947Z,62.08
2023-04-29T15:58:42.436Z,63.02
2023-04-29T16:01:19.484Z,63.21
2023-04-29T16:03:53.064Z,63.24
2023-04-29T16:06:25.810Z,63.62
2023-04-29T16:08:58.439Z,64.46
2023-04-29T16:11:53.774Z,64.40
2023-04-29T16:14:26.217Z,64.09
2023-04-29T16:17:04.063Z,64.86
2023-04-29T16:19:42.250Z,64.05
2023-04-29T16:22:18.262Z,65.63
2023-04-29T16:24:54.298Z,66.59
2023-04-29T16:27:28.296Z,65.48
2023-04-29T16:30:01.705Z,66.13
2023-04-29T16:32:38.888Z,65.26
2023-04-29T16:35:29.653Z,65.47
2023-04-29T16:38:02.130Z,65.79
2023-04-29T16:40:34.466Z,63.99
2023-04-29T16:43:06.975Z,65.25
2023-04-29T16:45:39.054Z,64.30
2023-04-29T16:48:14.524Z,63.87
2023-04-29T16:50:47.951Z,62.22
2023-04-29T16:53:21.018Z,63.61
2023-04-29T16:55:52.907Z,60.83
2023-04-29T16:58:25.262Z,58.42
2023-04-29T17:01:00.705Z,55.98
2023-04-29T17:03:35.957Z,55.22
2023-04-29T17:06:08.548Z,52.96
2023-04-29T17:08:44.894Z,51.29
2023-04-29T17:11:17.234Z,51.16
2023-04-29T17:13:50.997Z,51.40
2023-04-29T17:16:23.357Z,50.70
2023-04-29T17:18:58.233Z,51.77
2023-04-29T17:21:33.323Z,51.33
2023-04-29T17:24:05.834Z,52.52
2023-04-29T17:26:37.951Z,51.96
2023-04-29T17:29:11.317Z,51.96
2023-04-29T17:31:55.335Z,51.77
2023-04-29T17:34:31.579Z,51.82
2023-04-29T17:37:03.912Z,51.19
2023-04-29T17:39:36.956Z,52.02
2023-04-29T17:42:09.356Z,51.38
2023-04-29T17:44:41.926Z,51.33
2023-04-29T17:47:15.556Z,52.38
2023-04-29T17:49:52.400Z,51.74
2023-04-29T17:52:24.554Z,51.51
2023-04-29T17:54:56.834Z,51.97
2023-04-29T17:57:29.072Z,52.35
2023-04-29T18:00:01.357Z,51.56
2023-04-29T18:02:33.622Z,52.52
2023-04-29T18:05:09.617Z,51.73
2023-04-29T18:07:41.789Z,51.43
2023-04-29T18:10:14.501Z,51.57
2023-04-29T18:12:46.535Z,52.12
2023-04-29T18:15:22.810Z,52.38
2023-04-29T18:17:54.837Z,51.86
2023-04-29T18:20:30.032Z,51.89
2023-04-29T18:23:02.216Z,51.93
2023-04-29T18:25:34.496Z,52.16
2023-04-29T18:28:24.779Z,52.32
2023-04-29T18:30:58.214Z,52.55
2023-04-29T18:33:31.591Z,52.99
2023-04-29T18:36:07.050Z,53.64
2023-04-29T18:38:39.209Z,54.03
2023-04-29T18:41:12.408Z,54.82
2023-04-29T18:43:46.580Z,55.41
2023-04-29T18:46:18.986Z,55.42
2023-04-29T18:48:51.036Z,55.06
2023-04-29T18:51:26.208Z,55.70
2023-04-29T18:53:57.911Z,55.53
2023-04-29T18:56:30.389Z,56.42
2023-04-29T18:59:02.332Z,57.26
2023-04-29T19:01:34.670Z,57.78
2023-04-29T19:04:08.642Z,57.38
2023-04-29T19:06:45.345Z,57.04
2023-04-29T19:09:17.558Z,57.89
2023-04-29T19:11:50.313Z,57.83
2023-04-29T19:14:23.110Z,57.58
2023-04-29T19:16:55.374Z,58.18
2023-04-29T19:19:27.384Z,58.07
2023-04-29T19:22:02.748Z,59.03
2023-04-29T19:24:37.389Z,59.08
2023-04-29T19:27:09.907Z,57.89
2023-04-29T19:29:41.904Z,58.39
2023-04-29T19:32:14.499Z,58.85
2023-04-29T19:34:47.058Z,58.04
2023-04-29T19:37:22.311Z,57.80
2023-04-29T19:39:54.526Z,58.29
2023-04-29T19:42:27.392Z,58.55
2023-04-29T19:45:10.274Z,57.97
2023-04-29T19:47:43.103Z,58.44
2023-04-29T19:50:15.508Z,59.79
2023-04-29T19:52:51.055Z,59.48
2023-04-29T19:55:23.631Z,58.73
2023-04-29T19:57:56.853Z,59.18
2023-04-29T20:00:29.322Z,58.57
2023-04-29T20:03:02.142Z,59.05
2023-04-29T20:05:34.714Z,58.25
2023-04-29T20:08:10.413Z,58.64
2023-04-29T20:10:42.695Z,58.62
2023-04-29T20:16:06.903Z,59.56
2023-04-29T20:18:41.320Z,59.56
2023-04-29T20:21:13.750Z,59.99
2023-04-29T20:23:50.529Z,59.76
2023-04-29T20:26:30.649Z,60.61
2023-04-29T20:29:04.348Z,60.92
2023-04-29T20:31:40.234Z,60.78
2023-04-29T20:34:36.970Z,60.90
2023-04-29T20:37:10.149Z,60.86
2023-04-29T20:39:45.588Z,60.64
2023-04-29T20:42:18.867Z,60.85
2023-04-29T20:44:51.390Z,60.88
2023-04-29T20:47:24.113Z,60.82
2023-04-29T20:49:56.682Z,61.46
2023-04-29T20:52:29.854Z,61.91
2023-04-29T20:55:09.361Z,62.42
2023-04-29T20:57:44.142Z,64.06
2023-04-29T21:04:22.556Z,64.02
2023-04-29T21:07:10.768Z,63.49
2023-04-29T21:14:17.305Z,64.72
2023-04-29T21:16:53.323Z,64.46
2023-04-29T21:19:25.921Z,65.02
2023-04-29T21:21:58.699Z,64.86
2023-04-29T21:24:32.050Z,65.37
2023-04-29T21:27:04.865Z,65.44
2023-04-29T21:29:41.185Z,65.19
2023-04-29T21:32:22.190Z,66.19
2023-04-29T21:34:54.216Z,65.95
2023-04-29T21:37:27.538Z,66.74
2023-04-29T21:40:04.650Z,66.69
2023-04-29T21:42:37.054Z,66.85
2023-04-29T21:45:10.999Z,67.19
2023-04-29T21:47:47.867Z,68.17
2023-04-29T21:50:20.136Z,69.27
2023-04-29T21:52:52.536Z,69.37
2023-04-29T21:55:24.586Z,69.19
2023-04-29T21:57:56.976Z,69.91
2023-04-29T22:00:33.748Z,69.41
2023-04-29T22:03:11.358Z,69.96
2023-04-29T22:05:44.476Z,70.39
2023-04-29T22:08:16.803Z,70.41
2023-04-29T22:10:51.561Z,70.37
2023-04-29T22:13:23.879Z,70.96
2023-04-29T22:15:55.783Z,70.65
2023-04-29T22:18:32.155Z,71.06
2023-04-29T22:24:01.556Z,71.93
2023-04-29T22:26:33.663Z,71.77
2023-04-29T22:29:06.333Z,71.95
2023-04-29T22:31:38.125Z,72.43
2023-04-29T22:34:13.316Z,73.07
2023-04-29T22:36:45.223Z,72.26
2023-04-29T22:39:20.524Z,71.18
2023-04-29T22:41:52.645Z,70.93
2023-04-29T22:44:25.188Z,70.51
2023-04-29T22:46:57.214Z,70.07
2023-04-29T22:49:35.735Z,68.99
2023-04-29T22:52:10.293Z,69.82
2023-04-29T22:54:42.697Z,69.54
2023-04-29T22:57:14.752Z,69.64
2023-04-29T22:59:47.162Z,69.47
2023-04-29T23:02:21.675Z,69.82
2023-04-29T23:04:57.461Z,69.94
2023-04-29T23:07:30.136Z,69.96
2023-04-29T23:10:02.446Z,69.07
2023-04-29T23:12:37.155Z,69.56
2023-04-29T23:15:10.541Z,69.31
2023-04-29T23:17:42.702Z,69.38
2023-04-29T23:20:18.480Z,69.69
2023-04-29T23:22:50.773Z,69.60
2023-04-29T23:25:23.092Z,69.33
2023-04-29T23:27:56.222Z,69.46
2023-04-29T23:30:28.437Z,69.18
2023-04-29T23:33:00.891Z,69.19
2023-04-29T23:35:36.517Z,69.04
2023-04-29T23:38:08.855Z,69.36
2023-04-29T23:40:41.503Z,69.58
2023-04-29T23:43:15.317Z,70.02
2023-04-29T23:45:48.547Z,70.21
2023-04-29T23:48:20.920Z,70.55
2023-04-29T23:50:56.492Z,70.59
2023-04-29T23:53:35.381Z,70.47
2023-04-29T23:56:08.588Z,71.25
2023-04-29T23:58:41.557Z,71.32
